PWSweather.com
Personal Weather Stations
Station Observations
MADWEATHER
MadeiraPT

MadeiraPT

Lat: 32.735, Lon: -17.194

Elevation: 1063

Station Type: Davis VantagePro2

www.mad-weather.com

High Low Average
Temperature 65.1°F18.4°C 57.3°F14.1°C 60.9°F16.1°C
Dew Point 61.9°F16.6°C 49.5°F9.7°C 55.3°F12.9°C
Winds 18.3 mph 29.5 kmh 0.5 mph 0.8 kmh 7.0 mph WNW11.3 kmh WNW
Wind Gusts 30.0 mph48.3 kmh 1.0 mph1.6 kmh 12.0 mph19.3 kmh
Humidity 95% 72% 82%
Pressure 29.79 in1008.8 mb 29.61 in1002.7 mb -
Precipitation 0.95 in24.1 mm - -
Hour Temp Dew Point Humidity Winds Wind Gusts Pressure Precip Precip Rate Daily Precip Total
12:00 AM 63.9°F17.7°C 56.9°F13.8°C 78% 7.4 mph S11.9 kmh S 13.0 mph20.9 kmh 29.76 in1007.8 mb - 0.00 in0.0 mm 0.00 in0.0 mm
12:10 AM 64.1°F17.8°C 56.8°F13.8°C 77% 13.3 mph SW21.4 kmh SW 19.0 mph30.6 kmh 29.75 in1007.5 mb - 0.00 in0.0 mm 0.00 in0.0 mm
12:20 AM 64.2°F17.9°C 57.2°F14.0°C 78% 13.7 mph SSW22.0 kmh SSW 20.0 mph32.2 kmh 29.75 in1007.5 mb - 0.00 in0.0 mm 0.00 in0.0 mm
12:30 AM 64.2°F17.9°C 57.5°F14.2°C 79% 10.7 mph S17.2 kmh S 15.0 mph24.1 kmh 29.75 in1007.5 mb - 0.00 in0.0 mm 0.00 in0.0 mm
12:40 AM 64.2°F17.9°C 57.9°F14.4°C 80% 12.6 mph SSW20.3 kmh SSW 20.0 mph32.2 kmh 29.75 in1007.5 mb - 0.00 in0.0 mm 0.00 in0.0 mm
12:50 AM 64.2°F17.9°C 57.2°F14.0°C 78% 10.4 mph SSW16.7 kmh SSW 18.0 mph29.0 kmh 29.75 in1007.5 mb - 0.00 in0.0 mm 0.00 in0.0 mm
01:00 AM 63.4°F17.4°C 57.8°F14.3°C 82% 10.6 mph SSW17.1 kmh SSW 14.0 mph22.5 kmh 29.74 in1007.1 mb - 0.02 in0.5 mm 0.02 in0.5 mm
01:10 AM 62.7°F17.1°C 57.8°F14.3°C 84% 11.5 mph SSW18.5 kmh SSW 16.0 mph25.7 kmh 29.73 in1006.8 mb - 0.02 in0.5 mm 0.04 in1.0 mm
01:20 AM 62.0°F16.7°C 57.5°F14.2°C 85% 6.7 mph S10.8 kmh S 12.0 mph19.3 kmh 29.73 in1006.8 mb - 0.02 in0.5 mm 0.06 in1.5 mm
01:30 AM 61.8°F16.6°C 57.9°F14.4°C 87% 7.9 mph SSW12.7 kmh SSW 12.0 mph19.3 kmh 29.72 in1006.4 mb - 0.02 in0.5 mm 0.07 in1.8 mm
01:40 AM 61.9°F16.6°C 59.0°F15.0°C 90% 11.0 mph SSW17.7 kmh SSW 17.0 mph27.4 kmh 29.71 in1006.1 mb - 0.03 in0.8 mm 0.10 in2.5 mm
01:50 AM 62.0°F16.7°C 60.0°F15.6°C 93% 8.6 mph SW13.8 kmh SW 11.0 mph17.7 kmh 29.71 in1006.1 mb - 0.03 in0.8 mm 0.13 in3.3 mm
02:00 AM 62.0°F16.7°C 60.3°F15.7°C 94% 18.3 mph SW29.5 kmh SW 23.0 mph37.0 kmh 29.71 in1006.1 mb - 0.02 in0.5 mm 0.14 in3.6 mm
02:10 AM 61.8°F16.6°C 59.8°F15.4°C 93% 7.6 mph SW12.2 kmh SW 11.0 mph17.7 kmh 29.70 in1005.8 mb - 0.03 in0.8 mm 0.17 in4.3 mm
02:20 AM 62.2°F16.8°C 60.2°F15.7°C 93% 12.8 mph SW20.6 kmh SW 17.0 mph27.4 kmh 29.70 in1005.8 mb - 0.03 in0.8 mm 0.21 in5.3 mm
02:30 AM 62.0°F16.7°C 60.2°F15.7°C 94% 12.9 mph SW20.8 kmh SW 17.0 mph27.4 kmh 29.69 in1005.4 mb - 0.02 in0.5 mm 0.22 in5.6 mm
02:40 AM 61.6°F16.4°C 59.9°F15.5°C 94% 7.1 mph SSW11.4 kmh SSW 14.0 mph22.5 kmh 29.68 in1005.1 mb - 0.01 in0.3 mm 0.23 in5.8 mm
02:50 AM 62.3°F16.8°C 60.5°F15.8°C 94% 11.1 mph S17.9 kmh S 17.0 mph27.4 kmh 29.68 in1005.1 mb - 0.00 in0.0 mm 0.23 in5.8 mm
03:00 AM 62.5°F16.9°C 60.7°F15.9°C 94% 9.1 mph SSW14.6 kmh SSW 16.0 mph25.7 kmh 29.67 in1004.7 mb - 0.01 in0.3 mm 0.24 in6.1 mm
03:10 AM 62.6°F17.0°C 60.8°F16.0°C 94% 10.9 mph SSW17.5 kmh SSW 15.0 mph24.1 kmh 29.66 in1004.4 mb - 0.00 in0.0 mm 0.24 in6.1 mm
03:20 AM 63.1°F17.3°C 61.6°F16.4°C 95% 11.3 mph SSW18.2 kmh SSW 18.0 mph29.0 kmh 29.65 in1004.1 mb - 0.00 in0.0 mm 0.24 in6.1 mm
03:30 AM 63.1°F17.3°C 61.3°F16.3°C 94% 10.9 mph SW17.5 kmh SW 17.0 mph27.4 kmh 29.65 in1004.1 mb - 0.02 in0.5 mm 0.25 in6.4 mm
03:40 AM 63.4°F17.4°C 61.6°F16.4°C 94% 7.6 mph SW12.2 kmh SW 14.0 mph22.5 kmh 29.65 in1004.1 mb - 0.06 in1.5 mm 0.31 in7.9 mm
03:50 AM 63.4°F17.4°C 61.9°F16.6°C 95% 14.5 mph SW23.3 kmh SW 18.0 mph29.0 kmh 29.64 in1003.7 mb - 0.06 in1.5 mm 0.35 in8.9 mm
04:00 AM 62.9°F17.2°C 61.5°F16.4°C 95% 12.1 mph SW19.5 kmh SW 19.0 mph30.6 kmh 29.63 in1003.4 mb - 0.02 in0.5 mm 0.38 in9.7 mm
04:10 AM 62.5°F16.9°C 61.0°F16.1°C 95% 8.7 mph NW14.0 kmh NW 16.0 mph25.7 kmh 29.63 in1003.4 mb - 0.13 in3.3 mm 0.51 in13.0 mm
04:20 AM 60.1°F15.6°C 58.3°F14.6°C 94% 7.7 mph NW12.4 kmh NW 12.0 mph19.3 kmh 29.61 in1002.7 mb - 0.18 in4.6 mm 0.67 in17.0 mm
04:30 AM 59.2°F15.1°C 57.5°F14.2°C 94% 6.5 mph NNW10.5 kmh NNW 12.0 mph19.3 kmh 29.61 in1002.7 mb - 0.03 in0.8 mm 0.69 in17.5 mm
04:40 AM 59.1°F15.1°C 57.1°F13.9°C 93% 12.5 mph NW20.1 kmh NW 16.0 mph25.7 kmh 29.65 in1004.1 mb - 0.03 in0.8 mm 0.72 in18.3 mm
04:50 AM 58.7°F14.8°C 56.7°F13.7°C 93% 4.3 mph N6.9 kmh N 9.0 mph14.5 kmh 29.62 in1003.0 mb - 0.06 in1.5 mm 0.76 in19.3 mm
05:00 AM 58.3°F14.6°C 56.3°F13.5°C 93% 3.8 mph NNW6.1 kmh NNW 7.0 mph11.3 kmh 29.63 in1003.4 mb - 0.01 in0.3 mm 0.77 in19.6 mm
05:10 AM 57.8°F14.3°C 55.5°F13.1°C 92% 3.7 mph NW6.0 kmh NW 11.0 mph17.7 kmh 29.61 in1002.7 mb - 0.01 in0.3 mm 0.78 in19.8 mm
05:20 AM 57.3°F14.1°C 54.1°F12.3°C 89% 8.2 mph NW13.2 kmh NW 12.0 mph19.3 kmh 29.62 in1003.0 mb - 0.00 in0.0 mm 0.78 in19.8 mm
05:30 AM 57.3°F14.1°C 54.1°F12.3°C 89% 6.5 mph NW10.5 kmh NW 15.0 mph24.1 kmh 29.62 in1003.0 mb - 0.00 in0.0 mm 0.78 in19.8 mm
05:40 AM 58.0°F14.4°C 54.5°F12.5°C 88% 5.3 mph NNW8.5 kmh NNW 9.0 mph14.5 kmh 29.62 in1003.0 mb - 0.00 in0.0 mm 0.78 in19.8 mm
05:50 AM 58.5°F14.7°C 54.3°F12.4°C 86% 5.3 mph NW8.5 kmh NW 11.0 mph17.7 kmh 29.62 in1003.0 mb - 0.00 in0.0 mm 0.78 in19.8 mm
06:00 AM 58.9°F14.9°C 54.4°F12.4°C 85% 3.1 mph NW5.0 kmh NW 5.0 mph8.0 kmh 29.62 in1003.0 mb - 0.00 in0.0 mm 0.78 in19.8 mm
06:10 AM 59.3°F15.2°C 54.8°F12.7°C 85% 2.9 mph NNW4.7 kmh NNW 7.0 mph11.3 kmh 29.62 in1003.0 mb - 0.00 in0.0 mm 0.78 in19.8 mm
06:20 AM 59.2°F15.1°C 55.0°F12.8°C 86% 2.9 mph NNW4.7 kmh NNW 9.0 mph14.5 kmh 29.63 in1003.4 mb - 0.00 in0.0 mm 0.78 in19.8 mm
06:30 AM 59.2°F15.1°C 55.0°F12.8°C 86% 2.2 mph NNW3.5 kmh NNW 9.0 mph14.5 kmh 29.63 in1003.4 mb - 0.00 in0.0 mm 0.78 in19.8 mm
06:40 AM 59.3°F15.2°C 55.1°F12.8°C 86% 2.3 mph NNW3.7 kmh NNW 7.0 mph11.3 kmh 29.63 in1003.4 mb - 0.00 in0.0 mm 0.78 in19.8 mm
06:50 AM 59.3°F15.2°C 55.1°F12.8°C 86% 2.5 mph N4.0 kmh N 10.0 mph16.1 kmh 29.63 in1003.4 mb - 0.00 in0.0 mm 0.78 in19.8 mm
07:00 AM 59.4°F15.2°C 55.2°F12.9°C 86% 0.9 mph N1.4 kmh N 2.0 mph3.2 kmh 29.63 in1003.4 mb - 0.00 in0.0 mm 0.78 in19.8 mm
07:10 AM 59.6°F15.3°C 55.4°F13.0°C 86% 4.1 mph NW6.6 kmh NW 10.0 mph16.1 kmh 29.63 in1003.4 mb - 0.00 in0.0 mm 0.78 in19.8 mm
07:20 AM 59.8°F15.4°C 55.9°F13.3°C 87% 8.2 mph NW13.2 kmh NW 18.0 mph29.0 kmh 29.64 in1003.7 mb - 0.00 in0.0 mm 0.78 in19.8 mm
07:30 AM 60.3°F15.7°C 56.7°F13.7°C 88% 4.2 mph WNW6.8 kmh WNW 10.0 mph16.1 kmh 29.64 in1003.7 mb - 0.00 in0.0 mm 0.78 in19.8 mm
07:40 AM 60.2°F15.7°C 56.6°F13.7°C 88% 3.7 mph NW6.0 kmh NW 3.0 mph4.8 kmh 29.64 in1003.7 mb - 0.00 in0.0 mm 0.78 in19.8 mm
07:50 AM 60.3°F15.7°C 57.1°F13.9°C 89% 12.2 mph NW19.6 kmh NW 17.0 mph27.4 kmh 29.65 in1004.1 mb - 0.01 in0.3 mm 0.79 in20.1 mm
08:00 AM 60.0°F15.6°C 56.1°F13.4°C 87% 6.9 mph NNW11.1 kmh NNW 12.0 mph19.3 kmh 29.65 in1004.1 mb - 0.00 in0.0 mm 0.79 in20.1 mm
08:10 AM 59.7°F15.4°C 55.5°F13.1°C 86% 4.5 mph NW7.2 kmh NW 10.0 mph16.1 kmh 29.65 in1004.1 mb - 0.00 in0.0 mm 0.79 in20.1 mm
08:20 AM 60.1°F15.6°C 55.9°F13.3°C 86% 3.1 mph NW5.0 kmh NW 5.0 mph8.0 kmh 29.66 in1004.4 mb - 0.00 in0.0 mm 0.79 in20.1 mm
08:30 AM 60.8°F16.0°C 56.6°F13.7°C 86% 4.1 mph NW6.6 kmh NW 6.0 mph9.7 kmh 29.66 in1004.4 mb - 0.00 in0.0 mm 0.79 in20.1 mm
08:40 AM 61.5°F16.4°C 56.9°F13.8°C 85% 7.3 mph NW11.7 kmh NW 14.0 mph22.5 kmh 29.66 in1004.4 mb - 0.00 in0.0 mm 0.79 in20.1 mm
08:50 AM 61.4°F16.3°C 56.9°F13.8°C 85% 9.8 mph NW15.8 kmh NW 14.0 mph22.5 kmh 29.66 in1004.4 mb - 0.03 in0.8 mm 0.82 in20.8 mm
09:00 AM 59.5°F15.3°C 55.3°F12.9°C 86% 10.4 mph NW16.7 kmh NW 16.0 mph25.7 kmh 29.67 in1004.7 mb - 0.01 in0.3 mm 0.83 in21.1 mm
09:10 AM 59.4°F15.2°C 54.3°F12.4°C 83% 11.4 mph NW18.3 kmh NW 15.0 mph24.1 kmh 29.68 in1005.1 mb - 0.00 in0.0 mm 0.83 in21.1 mm
09:20 AM 60.7°F15.9°C 55.5°F13.1°C 83% 7.6 mph NW12.2 kmh NW 13.0 mph20.9 kmh 29.67 in1004.7 mb - 0.00 in0.0 mm 0.83 in21.1 mm
09:30 AM 61.8°F16.6°C 56.9°F13.8°C 84% 7.0 mph NW11.3 kmh NW 16.0 mph25.7 kmh 29.68 in1005.1 mb - 0.00 in0.0 mm 0.83 in21.1 mm
09:40 AM 62.6°F17.0°C 57.7°F14.3°C 84% 6.0 mph NW9.7 kmh NW 10.0 mph16.1 kmh 29.68 in1005.1 mb - 0.00 in0.0 mm 0.83 in21.1 mm
09:50 AM 63.0°F17.2°C 57.1°F13.9°C 81% 4.6 mph NW7.4 kmh NW 7.0 mph11.3 kmh 29.68 in1005.1 mb - 0.00 in0.0 mm 0.83 in21.1 mm
10:00 AM 63.5°F17.5°C 56.6°F13.7°C 78% 5.3 mph NNW8.5 kmh NNW 11.0 mph17.7 kmh 29.68 in1005.1 mb - 0.00 in0.0 mm 0.83 in21.1 mm
10:10 AM 63.8°F17.7°C 57.5°F14.2°C 80% 5.4 mph NW8.7 kmh NW 6.0 mph9.7 kmh 29.69 in1005.4 mb - 0.00 in0.0 mm 0.83 in21.1 mm
10:20 AM 64.3°F17.9°C 57.3°F14.1°C 78% 3.7 mph WNW6.0 kmh WNW 14.0 mph22.5 kmh 29.69 in1005.4 mb - 0.00 in0.0 mm 0.83 in21.1 mm
10:30 AM 64.7°F18.2°C 57.7°F14.3°C 78% 6.7 mph WNW10.8 kmh WNW 11.0 mph17.7 kmh 29.69 in1005.4 mb - 0.00 in0.0 mm 0.83 in21.1 mm
10:40 AM 65.1°F18.4°C 58.8°F14.9°C 80% 6.2 mph NW10.0 kmh NW 10.0 mph16.1 kmh 29.70 in1005.8 mb - 0.00 in0.0 mm 0.83 in21.1 mm
10:50 AM 64.4°F18.0°C 58.1°F14.5°C 80% 5.6 mph WNW9.0 kmh WNW 11.0 mph17.7 kmh 29.70 in1005.8 mb - 0.00 in0.0 mm 0.83 in21.1 mm
11:00 AM 63.5°F17.5°C 57.9°F14.4°C 82% 7.7 mph WNW12.4 kmh WNW 13.0 mph20.9 kmh 29.70 in1005.8 mb - 0.01 in0.3 mm 0.84 in21.3 mm
11:10 AM 62.1°F16.7°C 56.9°F13.8°C 83% 10.0 mph NW16.1 kmh NW 19.0 mph30.6 kmh 29.70 in1005.8 mb - 0.01 in0.3 mm 0.84 in21.3 mm
11:20 AM 61.5°F16.4°C 56.0°F13.3°C 82% 15.6 mph NW25.1 kmh NW 30.0 mph48.3 kmh 29.70 in1005.8 mb - 0.01 in0.3 mm 0.84 in21.3 mm
11:30 AM 60.2°F15.7°C 54.7°F12.6°C 82% 6.0 mph NW9.7 kmh NW 10.0 mph16.1 kmh 29.71 in1006.1 mb - 0.00 in0.0 mm 0.84 in21.3 mm
11:40 AM 61.7°F16.5°C 56.2°F13.4°C 82% 10.1 mph NW16.3 kmh NW 13.0 mph20.9 kmh 29.71 in1006.1 mb - 0.00 in0.0 mm 0.84 in21.3 mm
11:50 AM 63.6°F17.6°C 57.4°F14.1°C 80% 12.1 mph WNW19.5 kmh WNW 18.0 mph29.0 kmh 29.70 in1005.8 mb - 0.00 in0.0 mm 0.84 in21.3 mm
12:00 PM 61.8°F16.6°C 55.9°F13.3°C 81% 11.4 mph NW18.3 kmh NW 17.0 mph27.4 kmh 29.71 in1006.1 mb - 0.02 in0.5 mm 0.86 in21.8 mm
12:10 PM 62.9°F17.2°C 57.3°F14.1°C 82% 11.2 mph NW18.0 kmh NW 24.0 mph38.6 kmh 29.70 in1005.8 mb - 0.00 in0.0 mm 0.86 in21.8 mm
12:20 PM 64.1°F17.8°C 57.8°F14.3°C 80% 7.3 mph WNW11.7 kmh WNW 13.0 mph20.9 kmh 29.69 in1005.4 mb - 0.00 in0.0 mm 0.86 in21.8 mm
12:30 PM 62.5°F16.9°C 56.9°F13.8°C 82% 8.8 mph NNW14.2 kmh NNW 15.0 mph24.1 kmh 29.69 in1005.4 mb - 0.02 in0.5 mm 0.88 in22.4 mm
12:40 PM 60.8°F16.0°C 55.6°F13.1°C 83% 4.9 mph NNW7.9 kmh NNW 5.0 mph8.0 kmh 29.69 in1005.4 mb - 0.02 in0.5 mm 0.90 in22.9 mm
12:50 PM 59.7°F15.4°C 55.1°F12.8°C 85% 7.8 mph NW12.6 kmh NW 12.0 mph19.3 kmh 29.69 in1005.4 mb - 0.00 in0.0 mm 0.90 in22.9 mm
01:00 PM 61.5°F16.4°C 56.7°F13.7°C 84% 8.5 mph NW13.7 kmh NW 16.0 mph25.7 kmh 29.69 in1005.4 mb - 0.00 in0.0 mm 0.90 in22.9 mm
01:10 PM 62.6°F17.0°C 57.0°F13.9°C 82% 8.4 mph NW13.5 kmh NW 14.0 mph22.5 kmh 29.69 in1005.4 mb - 0.00 in0.0 mm 0.90 in22.9 mm
01:20 PM 62.5°F16.9°C 56.2°F13.4°C 80% 12.9 mph NW20.8 kmh NW 19.0 mph30.6 kmh 29.69 in1005.4 mb - 0.00 in0.0 mm 0.90 in22.9 mm
01:30 PM 62.9°F17.2°C 56.3°F13.5°C 79% 5.8 mph NW9.3 kmh NW 10.0 mph16.1 kmh 29.69 in1005.4 mb - 0.00 in0.0 mm 0.90 in22.9 mm
01:40 PM 63.5°F17.5°C 55.8°F13.2°C 76% 8.2 mph NW13.2 kmh NW 11.0 mph17.7 kmh 29.69 in1005.4 mb - 0.00 in0.0 mm 0.90 in22.9 mm
01:50 PM 63.7°F17.6°C 56.3°F13.5°C 77% 3.7 mph NW6.0 kmh NW 14.0 mph22.5 kmh 29.68 in1005.1 mb - 0.00 in0.0 mm 0.90 in22.9 mm
02:00 PM 63.6°F17.6°C 57.3°F14.1°C 80% 6.3 mph NW10.1 kmh NW 14.0 mph22.5 kmh 29.69 in1005.4 mb - 0.03 in0.8 mm 0.93 in23.6 mm
02:10 PM 61.8°F16.6°C 56.3°F13.5°C 82% 8.6 mph NW13.8 kmh NW 15.0 mph24.1 kmh 29.69 in1005.4 mb - 0.00 in0.0 mm 0.93 in23.6 mm
02:20 PM 62.4°F16.9°C 56.2°F13.4°C 80% 6.8 mph NW10.9 kmh NW 11.0 mph17.7 kmh 29.69 in1005.4 mb - 0.00 in0.0 mm 0.93 in23.6 mm
02:30 PM 62.2°F16.8°C 55.6°F13.1°C 79% 7.3 mph NW11.7 kmh NW 11.0 mph17.7 kmh 29.69 in1005.4 mb - 0.00 in0.0 mm 0.93 in23.6 mm
02:40 PM 62.4°F16.9°C 55.1°F12.8°C 77% 8.1 mph WNW13.0 kmh WNW 11.0 mph17.7 kmh 29.69 in1005.4 mb - 0.00 in0.0 mm 0.93 in23.6 mm
02:50 PM 63.2°F17.3°C 55.9°F13.3°C 77% 9.7 mph NW15.6 kmh NW 12.0 mph19.3 kmh 29.68 in1005.1 mb - 0.00 in0.0 mm 0.93 in23.6 mm
03:00 PM 62.7°F17.1°C 55.0°F12.8°C 76% 8.0 mph NW12.9 kmh NW 17.0 mph27.4 kmh 29.68 in1005.1 mb - 0.00 in0.0 mm 0.93 in23.6 mm
03:10 PM 63.5°F17.5°C 56.2°F13.4°C 77% 4.5 mph NW7.2 kmh NW 14.0 mph22.5 kmh 29.68 in1005.1 mb - 0.00 in0.0 mm 0.93 in23.6 mm
03:20 PM 63.4°F17.4°C 55.7°F13.2°C 76% 13.4 mph NW21.6 kmh NW 19.0 mph30.6 kmh 29.69 in1005.4 mb - 0.00 in0.0 mm 0.93 in23.6 mm
03:30 PM 63.2°F17.3°C 55.2°F12.9°C 75% 13.0 mph WNW20.9 kmh WNW 20.0 mph32.2 kmh 29.68 in1005.1 mb - 0.00 in0.0 mm 0.93 in23.6 mm
03:40 PM 63.1°F17.3°C 54.0°F12.2°C 72% 6.5 mph NW10.5 kmh NW 16.0 mph25.7 kmh 29.69 in1005.4 mb - 0.00 in0.0 mm 0.93 in23.6 mm
03:50 PM 63.1°F17.3°C 55.4°F13.0°C 76% 6.5 mph WNW10.5 kmh WNW 15.0 mph24.1 kmh 29.69 in1005.4 mb - 0.00 in0.0 mm 0.93 in23.6 mm
04:00 PM 62.7°F17.1°C 54.7°F12.6°C 75% 12.9 mph NW20.8 kmh NW 17.0 mph27.4 kmh 29.70 in1005.8 mb - 0.00 in0.0 mm 0.93 in23.6 mm
04:10 PM 63.1°F17.3°C 54.3°F12.4°C 73% 9.7 mph NW15.6 kmh NW 19.0 mph30.6 kmh 29.70 in1005.8 mb - 0.00 in0.0 mm 0.93 in23.6 mm
04:20 PM 61.6°F16.4°C 53.2°F11.8°C 74% 7.1 mph NW11.4 kmh NW 12.0 mph19.3 kmh 29.70 in1005.8 mb - 0.00 in0.0 mm 0.93 in23.6 mm
04:30 PM 61.2°F16.2°C 52.8°F11.6°C 74% 10.3 mph NW16.6 kmh NW 14.0 mph22.5 kmh 29.70 in1005.8 mb - 0.00 in0.0 mm 0.93 in23.6 mm
04:40 PM 62.1°F16.7°C 54.1°F12.3°C 75% 13.6 mph NW21.9 kmh NW 25.0 mph40.2 kmh 29.70 in1005.8 mb - 0.00 in0.0 mm 0.93 in23.6 mm
04:50 PM 61.9°F16.6°C 53.9°F12.2°C 75% 13.9 mph NW22.4 kmh NW 23.0 mph37.0 kmh 29.70 in1005.8 mb - 0.00 in0.0 mm 0.93 in23.6 mm
05:00 PM 61.8°F16.6°C 53.8°F12.1°C 75% 12.6 mph NW20.3 kmh NW 19.0 mph30.6 kmh 29.70 in1005.8 mb - 0.00 in0.0 mm 0.93 in23.6 mm
05:10 PM 61.6°F16.4°C 53.2°F11.8°C 74% 4.2 mph NW6.8 kmh NW 11.0 mph17.7 kmh 29.71 in1006.1 mb - 0.00 in0.0 mm 0.93 in23.6 mm
05:20 PM 61.4°F16.3°C 53.4°F11.9°C 75% 4.9 mph NW7.9 kmh NW 14.0 mph22.5 kmh 29.72 in1006.4 mb - 0.00 in0.0 mm 0.93 in23.6 mm
05:30 PM 61.1°F16.2°C 53.5°F11.9°C 76% 5.9 mph NW9.5 kmh NW 11.0 mph17.7 kmh 29.72 in1006.4 mb - 0.00 in0.0 mm 0.93 in23.6 mm
05:40 PM 60.5°F15.8°C 53.6°F12.0°C 78% 6.1 mph NW9.8 kmh NW 9.0 mph14.5 kmh 29.72 in1006.4 mb - 0.00 in0.0 mm 0.93 in23.6 mm
05:50 PM 59.8°F15.4°C 53.9°F12.2°C 81% 8.3 mph NNW13.4 kmh NNW 10.0 mph16.1 kmh 29.72 in1006.4 mb - 0.01 in0.3 mm 0.94 in23.9 mm
06:00 PM 58.9°F14.9°C 53.1°F11.7°C 81% 4.8 mph WNW7.7 kmh WNW 6.0 mph9.7 kmh 29.72 in1006.4 mb - 0.00 in0.0 mm 0.94 in23.9 mm
06:10 PM 58.7°F14.8°C 52.9°F11.6°C 81% 6.0 mph NW9.7 kmh NW 14.0 mph22.5 kmh 29.72 in1006.4 mb - 0.00 in0.0 mm 0.94 in23.9 mm
06:20 PM 58.8°F14.9°C 52.7°F11.5°C 80% 0.6 mph NW1.0 kmh NW 10.0 mph16.1 kmh 29.72 in1006.4 mb - 0.00 in0.0 mm 0.94 in23.9 mm
06:30 PM 58.8°F14.9°C 52.3°F11.3°C 79% 5.7 mph NW9.2 kmh NW 7.0 mph11.3 kmh 29.72 in1006.4 mb - 0.00 in0.0 mm 0.94 in23.9 mm
06:40 PM 58.8°F14.9°C 51.6°F10.9°C 77% 10.0 mph NW16.1 kmh NW 20.0 mph32.2 kmh 29.72 in1006.4 mb - 0.00 in0.0 mm 0.94 in23.9 mm
06:50 PM 58.9°F14.9°C 51.7°F10.9°C 77% 6.5 mph NW10.5 kmh NW 11.0 mph17.7 kmh 29.73 in1006.8 mb - 0.00 in0.0 mm 0.94 in23.9 mm
07:00 PM 58.7°F14.8°C 51.9°F11.1°C 78% 4.6 mph NW7.4 kmh NW 11.0 mph17.7 kmh 29.73 in1006.8 mb - 0.00 in0.0 mm 0.94 in23.9 mm
07:10 PM 58.6°F14.8°C 51.4°F10.8°C 77% 6.3 mph NW10.1 kmh NW 13.0 mph20.9 kmh 29.74 in1007.1 mb - 0.00 in0.0 mm 0.94 in23.9 mm
07:20 PM 58.7°F14.8°C 51.6°F10.9°C 77% 1.8 mph NW2.9 kmh NW 4.0 mph6.4 kmh 29.74 in1007.1 mb - 0.00 in0.0 mm 0.94 in23.9 mm
07:30 PM 58.3°F14.6°C 52.2°F11.2°C 80% 5.0 mph NW8.0 kmh NW 14.0 mph22.5 kmh 29.74 in1007.1 mb - 0.01 in0.3 mm 0.95 in24.1 mm
07:40 PM 58.0°F14.4°C 51.9°F11.1°C 80% 3.3 mph NW5.3 kmh NW 6.0 mph9.7 kmh 29.75 in1007.5 mb - 0.00 in0.0 mm 0.95 in24.1 mm
07:50 PM 58.0°F14.4°C 51.5°F10.8°C 79% 6.2 mph NW10.0 kmh NW 10.0 mph16.1 kmh 29.75 in1007.5 mb - 0.01 in0.3 mm 0.95 in24.1 mm
08:00 PM 58.0°F14.4°C 51.2°F10.7°C 78% 2.4 mph NW3.9 kmh NW 6.0 mph9.7 kmh 29.75 in1007.5 mb - 0.00 in0.0 mm 0.95 in24.1 mm
08:10 PM 58.1°F14.5°C 51.3°F10.7°C 78% 2.0 mph NW3.2 kmh NW 5.0 mph8.0 kmh 29.76 in1007.8 mb - 0.00 in0.0 mm 0.95 in24.1 mm
08:20 PM 58.2°F14.6°C 51.0°F10.6°C 77% 1.9 mph NW3.1 kmh NW 1.0 mph1.6 kmh 29.77 in1008.1 mb - 0.00 in0.0 mm 0.95 in24.1 mm
08:30 PM 58.2°F14.6°C 51.1°F10.6°C 77% 2.0 mph NW3.2 kmh NW 3.0 mph4.8 kmh 29.77 in1008.1 mb - 0.00 in0.0 mm 0.95 in24.1 mm
08:40 PM 58.4°F14.7°C 51.2°F10.7°C 77% 3.4 mph NW5.5 kmh NW 11.0 mph17.7 kmh 29.77 in1008.1 mb - 0.00 in0.0 mm 0.95 in24.1 mm
08:50 PM 58.8°F14.9°C 51.6°F10.9°C 77% 6.6 mph NW10.6 kmh NW 17.0 mph27.4 kmh 29.77 in1008.1 mb - 0.00 in0.0 mm 0.95 in24.1 mm
09:00 PM 58.9°F14.9°C 51.7°F10.9°C 77% 6.7 mph NW10.8 kmh NW 12.0 mph19.3 kmh 29.77 in1008.1 mb - 0.00 in0.0 mm 0.95 in24.1 mm
09:10 PM 58.4°F14.7°C 51.9°F11.1°C 79% 3.9 mph NW6.3 kmh NW 4.0 mph6.4 kmh 29.78 in1008.5 mb - 0.00 in0.0 mm 0.95 in24.1 mm
09:20 PM 58.2°F14.6°C 51.7°F10.9°C 79% 2.8 mph NW4.5 kmh NW 6.0 mph9.7 kmh 29.78 in1008.5 mb - 0.00 in0.0 mm 0.95 in24.1 mm
09:30 PM 58.3°F14.6°C 51.5°F10.8°C 78% 3.0 mph NW4.8 kmh NW 6.0 mph9.7 kmh 29.78 in1008.5 mb - 0.00 in0.0 mm 0.95 in24.1 mm
09:40 PM 58.4°F14.7°C 50.9°F10.5°C 76% 2.8 mph NNW4.5 kmh NNW 10.0 mph16.1 kmh 29.79 in1008.8 mb - 0.00 in0.0 mm 0.95 in24.1 mm
09:50 PM 58.4°F14.7°C 50.8°F10.4°C 76% 4.5 mph NW7.2 kmh NW 10.0 mph16.1 kmh 29.79 in1008.8 mb - 0.00 in0.0 mm 0.95 in24.1 mm
10:00 PM 58.4°F14.7°C 50.5°F10.3°C 75% 7.8 mph NW12.6 kmh NW 16.0 mph25.7 kmh 29.79 in1008.8 mb - 0.00 in0.0 mm 0.95 in24.1 mm
10:10 PM 58.4°F14.7°C 50.5°F10.3°C 75% 2.1 mph NW3.4 kmh NW 4.0 mph6.4 kmh 29.79 in1008.8 mb - 0.00 in0.0 mm 0.95 in24.1 mm
10:20 PM 58.4°F14.7°C 50.5°F10.3°C 75% 3.5 mph NW5.6 kmh NW 4.0 mph6.4 kmh 29.79 in1008.8 mb - 0.00 in0.0 mm 0.95 in24.1 mm
10:30 PM 58.3°F14.6°C 50.4°F10.2°C 75% 2.9 mph NW4.7 kmh NW 10.0 mph16.1 kmh 29.79 in1008.8 mb - 0.00 in0.0 mm 0.95 in24.1 mm
10:40 PM 58.3°F14.6°C 50.4°F10.2°C 75% 3.4 mph NW5.5 kmh NW 10.0 mph16.1 kmh 29.79 in1008.8 mb - 0.00 in0.0 mm 0.95 in24.1 mm
10:50 PM 58.1°F14.5°C 50.2°F10.1°C 75% 0.5 mph NW0.8 kmh NW 1.0 mph1.6 kmh 29.79 in1008.8 mb - 0.00 in0.0 mm 0.95 in24.1 mm
11:00 PM 57.9°F14.4°C 49.7°F9.8°C 74% 1.0 mph NW1.6 kmh NW 2.0 mph3.2 kmh 29.79 in1008.8 mb - 0.00 in0.0 mm 0.95 in24.1 mm
11:10 PM 57.9°F14.4°C 49.6°F9.8°C 74% 2.0 mph NW3.2 kmh NW 4.0 mph6.4 kmh 29.78 in1008.5 mb - 0.00 in0.0 mm 0.95 in24.1 mm
11:20 PM 57.8°F14.3°C 49.5°F9.7°C 74% 0.7 mph NW1.1 kmh NW 5.0 mph8.0 kmh 29.78 in1008.5 mb - 0.00 in0.0 mm 0.95 in24.1 mm
11:30 PM 57.6°F14.2°C 49.7°F9.8°C 75% 1.3 mph NW2.1 kmh NW 5.0 mph8.0 kmh 29.78 in1008.5 mb - 0.00 in0.0 mm 0.95 in24.1 mm
11:40 PM 57.5°F14.2°C 49.6°F9.8°C 75% 1.1 mph NW1.8 kmh NW 3.0 mph4.8 kmh 29.78 in1008.5 mb - 0.00 in0.0 mm 0.95 in24.1 mm
11:50 PM 57.4°F14.1°C 49.6°F9.8°C 75% 4.6 mph NW7.4 kmh NW 10.0 mph16.1 kmh 29.78 in1008.5 mb - 0.00 in0.0 mm 0.95 in24.1 mm